Time;durP1;ratioP1;P1;durP2;ratioP2;P2;SDS_P1;SDS_P2;PMS_P1;PMS_P2;Temp;Humidity;BMP_temperature;BMP_pressure;BME280_temperature;BME280_humidity;BME280_pressure;Samples;Min_cycle;Max_cycle;Signal;HPM_P1;HPM_P2
2022/05/10 00:00:49;;;;;;;7.50;3.83;;;18.60;50.70;;;;;;5045525;28;20115;-71
2022/05/10 00:03:15;;;;;;;5.63;3.80;;;18.50;51.00;;;;;;5061978;28;20016;-71
2022/05/10 00:05:42;;;;;;;5.93;4.20;;;18.50;51.10;;;;;;5058604;28;20021;-71
2022/05/10 00:08:11;;;;;;;5.63;4.28;;;18.50;51.20;;;;;;5057472;28;20099;-71
2022/05/10 00:10:37;;;;;;;6.72;3.47;;;18.60;51.30;;;;;;5049689;28;20021;-70
2022/05/10 00:13:04;;;;;;;5.65;3.70;;;18.50;51.20;;;;;;5050204;28;20036;-70
2022/05/10 00:15:29;;;;;;;7.93;4.13;;;18.60;51.30;;;;;;5065003;28;20509;-71
2022/05/10 00:17:55;;;;;;;5.93;3.95;;;18.60;51.40;;;;;;5046313;28;20024;-70
2022/05/10 00:20:23;;;;;;;6.30;4.25;;;18.60;51.50;;;;;;5062875;28;20021;-70
2022/05/10 00:22:49;;;;;;;7.28;4.70;;;18.60;51.70;;;;;;5055430;28;20013;-70
2022/05/10 00:25:19;;;;;;;4.38;3.95;;;18.60;51.80;;;;;;5058836;28;20433;-69
2022/05/10 00:27:44;;;;;;;6.75;4.60;;;18.60;51.80;;;;;;5050385;28;20034;-70
2022/05/10 00:30:11;;;;;;;8.30;4.85;;;18.60;51.90;;;;;;5037854;28;20101;-70
2022/05/10 00:32:38;;;;;;;5.95;4.30;;;18.50;52.00;;;;;;5054390;28;20052;-70
2022/05/10 00:35:10;;;;;;;6.28;4.90;;;18.60;52.00;;;;;;5058649;28;20027;-70
2022/05/10 00:37:36;;;;;;;6.88;4.80;;;18.50;52.10;;;;;;5062531;28;20032;-70
2022/05/10 00:40:02;;;;;;;6.53;4.63;;;18.50;52.20;;;;;;5053352;28;20505;-71
2022/05/10 00:42:36;;;;;;;6.55;4.32;;;18.50;52.10;;;;;;5064084;28;20099;-70
2022/05/10 00:45:14;;;;;;;5.90;4.22;;;18.40;52.30;;;;;;5048386;28;20027;-69
2022/05/10 00:47:48;;;;;;;5.55;4.30;;;18.40;52.50;;;;;;5064429;28;20021;-70
2022/05/10 00:50:27;;;;;;;5.00;3.95;;;18.30;52.70;;;;;;5051260;28;20440;-70
2022/05/10 00:53:07;;;;;;;6.18;4.65;;;18.30;52.70;;;;;;5069021;28;20253;-70
2022/05/10 00:55:56;;;;;;;7.80;5.15;;;18.20;53.00;;;;;;5055879;28;20133;-70
2022/05/10 00:58:25;;;;;;;6.90;5.18;;;18.10;53.20;;;;;;5065071;28;20028;-70
2022/05/10 01:00:54;;;;;;;7.25;5.72;;;18.10;53.30;;;;;;5066073;28;20514;-71
2022/05/10 01:03:31;;;;;;;8.43;6.05;;;18.10;53.50;;;;;;5051175;28;20615;-71
2022/05/10 01:06:25;;;;;;;9.20;6.03;;;18.10;53.70;;;;;;5056129;28;20363;-71
2022/05/10 01:09:11;;;;;;;8.32;5.88;;;18.00;53.90;;;;;;5060735;28;20047;-72
2022/05/10 01:11:50;;;;;;;9.40;6.18;;;18.00;53.80;;;;;;5057285;28;20414;-72
2022/05/10 01:14:37;;;;;;;8.15;5.90;;;18.00;54.00;;;;;;5066186;28;20601;-71
2022/05/10 01:17:03;;;;;;;9.48;5.72;;;17.90;53.90;;;;;;5050408;28;20029;-69
2022/05/10 01:19:28;;;;;;;7.82;5.35;;;17.90;54.10;;;;;;5058172;28;20024;-70
2022/05/10 01:22:16;;;;;;;6.95;5.32;;;17.90;54.10;;;;;;5063349;28;20095;-70
2022/05/10 01:24:54;;;;;;;9.90;5.47;;;17.90;54.20;;;;;;5057274;28;20028;-70
2022/05/10 01:27:42;;;;;;;8.35;5.60;;;17.80;54.20;;;;;;5054837;28;20360;-70
2022/05/10 01:30:31;;;;;;;7.22;5.43;;;17.80;54.30;;;;;;5055887;28;20539;-70
2022/05/10 01:36:09;;;;;;;8.75;6.20;;;17.80;54.40;;;;;;5055723;28;20144;-69
2022/05/10 01:38:46;;;;;;;6.82;5.25;;;17.70;54.30;;;;;;5054543;28;20040;-70
2022/05/10 01:41:28;;;;;;;9.15;6.40;;;17.70;54.40;;;;;;5054976;28;20025;-70
2022/05/10 01:44:03;;;;;;;10.40;6.70;;;17.70;54.50;;;;;;5062112;28;20048;-70
2022/05/10 01:46:30;;;;;;;8.65;6.43;;;17.70;54.60;;;;;;5059368;28;20490;-70
2022/05/10 01:49:17;;;;;;;8.48;6.35;;;17.60;54.50;;;;;;5056386;28;20134;-70
2022/05/10 01:52:25;;;;;;;13.73;9.18;;;17.70;55.30;;;;;;5044725;28;20108;-70
2022/05/10 01:55:04;;;;;;;11.07;7.82;;;17.60;54.70;;;;;;5061980;28;20032;-70
2022/05/10 01:57:33;;;;;;;8.73;6.70;;;17.60;54.80;;;;;;5056852;28;20028;-70
2022/05/10 02:00:17;;;;;;;9.82;6.50;;;17.60;55.40;;;;;;5064086;28;20012;-69
2022/05/10 02:03:15;;;;;;;9.00;6.05;;;17.50;54.70;;;;;;5053183;28;20032;-70
2022/05/10 02:06:13;;;;;;;8.00;5.93;;;17.50;54.80;;;;;;5059143;28;20029;-69
2022/05/10 02:08:57;;;;;;;8.88;6.50;;;17.40;54.90;;;;;;5057376;28;20016;-69
2022/05/10 02:11:23;;;;;;;10.70;6.72;;;17.40;55.30;;;;;;5059190;28;20044;-69
2022/05/10 02:14:03;;;;;;;7.05;5.70;;;17.30;55.40;;;;;;5056587;28;20016;-69
2022/05/10 02:16:42;;;;;;;8.38;6.00;;;17.30;55.70;;;;;;5060086;28;20087;-69
2022/05/10 02:19:15;;;;;;;9.70;6.50;;;17.20;55.80;;;;;;5056963;28;20099;-70
2022/05/10 02:21:51;;;;;;;9.65;7.50;;;17.20;56.10;;;;;;5063708;28;20029;-70
2022/05/10 02:24:27;;;;;;;9.52;6.88;;;17.10;56.40;;;;;;5062510;28;20457;-70
2022/05/10 02:27:01;;;;;;;10.75;6.53;;;17.00;56.50;;;;;;5062919;28;20655;-70
2022/05/10 02:29:32;;;;;;;7.78;6.05;;;17.00;56.70;;;;;;5050813;28;20038;-71
2022/05/10 02:35:03;;;;;;;9.18;6.82;;;16.90;56.90;;;;;;5046112;28;20132;-70
2022/05/10 02:37:28;;;;;;;8.60;6.22;;;16.90;57.20;;;;;;5060568;28;20021;-70
2022/05/10 02:39:54;;;;;;;8.50;6.43;;;16.90;57.40;;;;;;5051222;28;20414;-70
2022/05/10 02:42:22;;;;;;;11.25;6.97;;;16.80;57.50;;;;;;5059384;28;20017;-70
2022/05/10 02:44:50;;;;;;;9.30;6.53;;;16.80;57.60;;;;;;5065511;28;20016;-71
2022/05/10 02:47:27;;;;;;;9.23;6.78;;;16.90;57.70;;;;;;5054742;28;20052;-69
2022/05/10 02:49:52;;;;;;;9.13;7.10;;;16.90;57.70;;;;;;5063011;28;20029;-71
2022/05/10 02:52:18;;;;;;;9.15;7.07;;;16.90;57.90;;;;;;5057328;28;20027;-70
2022/05/10 02:54:43;;;;;;;9.57;6.93;;;16.90;58.10;;;;;;5061544;28;20636;-71
2022/05/10 02:57:09;;;;;;;11.77;7.85;;;16.80;58.20;;;;;;5053607;28;20027;-71
2022/05/10 02:59:36;;;;;;;12.10;7.85;;;16.80;58.40;;;;;;5062512;28;20095;-70
2022/05/10 03:02:23;;;;;;;10.07;7.03;;;16.80;58.50;;;;;;5056464;28;20390;-71
2022/05/10 03:04:56;;;;;;;8.85;7.00;;;16.90;58.40;;;;;;5061870;28;20093;-70
2022/05/10 03:07:23;;;;;;;10.73;7.55;;;17.00;58.20;;;;;;5045126;28;20060;-70
2022/05/10 03:09:48;;;;;;;8.73;6.88;;;17.10;58.00;;;;;;5062560;28;20028;-70
2022/05/10 03:12:14;;;;;;;10.30;7.50;;;17.10;57.90;;;;;;5062492;28;20024;-71
2022/05/10 03:14:40;;;;;;;9.25;7.18;;;17.10;57.90;;;;;;5059308;28;20086;-71
2022/05/10 03:17:06;;;;;;;8.50;7.13;;;17.20;57.90;;;;;;5062496;28;20021;-71
2022/05/10 03:19:32;;;;;;;10.88;7.32;;;17.20;57.80;;;;;;5057138;28;20020;-69
2022/05/10 03:21:58;;;;;;;7.70;6.70;;;17.20;57.80;;;;;;5062603;28;20433;-69
2022/05/10 03:24:23;;;;;;;7.97;6.65;;;17.20;57.80;;;;;;5051240;28;20021;-70
2022/05/10 03:26:52;;;;;;;8.10;6.85;;;17.20;57.70;;;;;;5060675;28;20078;-71
2022/05/10 03:29:18;;;;;;;12.63;8.50;;;17.20;57.70;;;;;;5067242;28;20028;-71
2022/05/10 03:31:44;;;;;;;9.55;7.15;;;17.20;57.90;;;;;;5058556;28;20035;-71
2022/05/10 03:36:53;;;;;;;9.50;7.00;;;17.20;57.90;;;;;;5042858;28;20115;-71
2022/05/10 03:39:19;;;;;;;9.70;7.30;;;17.20;57.80;;;;;;5065474;28;20104;-69
2022/05/10 03:41:44;;;;;;;9.18;7.57;;;17.30;57.80;;;;;;5046540;28;20093;-70
2022/05/10 03:44:10;;;;;;;10.13;7.28;;;17.30;57.80;;;;;;5062047;28;20497;-70
2022/05/10 03:46:36;;;;;;;11.73;7.22;;;17.30;57.70;;;;;;5057848;28;20029;-68
2022/05/10 03:49:01;;;;;;;10.50;8.15;;;17.30;57.70;;;;;;5062180;28;20013;-69
2022/05/10 03:51:28;;;;;;;10.25;7.18;;;17.40;57.70;;;;;;5057703;28;20017;-69
2022/05/10 03:53:53;;;;;;;11.00;7.20;;;17.30;57.70;;;;;;5055218;28;20025;-68
2022/05/10 03:56:19;;;;;;;9.40;7.18;;;17.30;57.70;;;;;;5057207;28;20029;-69
2022/05/10 03:58:45;;;;;;;10.38;7.20;;;17.40;57.60;;;;;;5055998;28;20506;-70
2022/05/10 04:01:10;;;;;;;9.85;7.15;;;17.40;57.50;;;;;;5058632;28;20478;-70
2022/05/10 04:03:36;;;;;;;9.75;7.53;;;17.40;57.40;;;;;;5043063;28;20017;-69
2022/05/10 04:06:02;;;;;;;10.18;7.65;;;17.40;57.30;;;;;;5063209;28;20368;-68
2022/05/10 04:08:28;;;;;;;10.05;7.35;;;17.40;57.30;;;;;;5046817;28;20025;-68
2022/05/10 04:10:54;;;;;;;9.32;6.68;;;17.40;57.30;;;;;;5058719;28;20017;-69
2022/05/10 04:13:19;;;;;;;9.60;6.25;;;17.50;57.30;;;;;;5056734;28;20060;-70
2022/05/10 04:15:45;;;;;;;8.63;6.63;;;17.50;57.20;;;;;;5049692;28;20032;-70
2022/05/10 04:18:11;;;;;;;9.07;7.03;;;17.50;57.20;;;;;;5061692;28;20368;-69
2022/05/10 04:20:36;;;;;;;10.43;6.93;;;17.50;57.10;;;;;;5045290;28;20103;-68
2022/05/10 04:23:02;;;;;;;10.52;7.07;;;17.50;57.10;;;;;;5059162;28;20017;-69
2022/05/10 04:25:27;;;;;;;8.68;6.60;;;17.60;57.10;;;;;;5050112;28;20397;-69
2022/05/10 04:27:54;;;;;;;8.85;7.38;;;17.60;57.10;;;;;;5060002;28;20385;-69
2022/05/10 04:30:21;;;;;;;10.13;7.75;;;17.60;57.20;;;;;;5054551;28;20022;-69
2022/05/10 04:32:46;;;;;;;11.40;8.93;;;17.60;57.30;;;;;;5047267;28;20414;-70
2022/05/10 04:35:12;;;;;;;13.80;9.93;;;17.60;57.60;;;;;;5052912;28;20021;-69
2022/05/10 04:37:39;;;;;;;11.98;8.52;;;17.60;57.70;;;;;;5050803;28;20434;-69
2022/05/10 04:42:51;;;;;;;12.30;7.90;;;17.60;57.70;;;;;;5049633;28;20099;-69
2022/05/10 04:45:17;;;;;;;11.85;8.25;;;17.60;57.60;;;;;;5054271;28;20079;-71
2022/05/10 04:47:42;;;;;;;9.88;7.85;;;17.70;57.60;;;;;;5042207;28;20487;-69
2022/05/10 04:50:09;;;;;;;11.15;8.23;;;17.70;57.60;;;;;;5062147;28;20017;-68
2022/05/10 04:52:35;;;;;;;10.88;7.93;;;17.70;57.70;;;;;;5047977;28;20036;-70
2022/05/10 04:55:01;;;;;;;11.45;8.27;;;17.80;57.50;;;;;;5055311;28;20091;-69
2022/05/10 04:57:26;;;;;;;9.43;7.55;;;17.80;57.50;;;;;;5046548;28;20053;-70
2022/05/10 04:59:52;;;;;;;10.10;7.82;;;17.90;57.30;;;;;;5059569;28;20390;-69
2022/05/10 05:02:17;;;;;;;10.77;7.82;;;17.90;57.20;;;;;;5055578;28;20119;-69
2022/05/10 05:04:43;;;;;;;11.55;7.90;;;18.00;57.20;;;;;;5047409;28;20021;-69
2022/05/10 05:07:09;;;;;;;12.65;8.80;;;18.00;57.10;;;;;;5056274;28;20025;-69
2022/05/10 05:09:35;;;;;;;10.98;7.82;;;18.00;57.10;;;;;;5044037;28;20030;-68
2022/05/10 05:12:00;;;;;;;9.40;7.50;;;18.00;57.10;;;;;;5061244;28;20024;-67
2022/05/10 05:14:26;;;;;;;10.73;7.28;;;18.10;57.00;;;;;;5047503;28;20038;-69
2022/05/10 05:16:54;;;;;;;9.93;7.15;;;18.20;56.70;;;;;;5061550;28;20502;-69
2022/05/10 05:19:19;;;;;;;10.55;7.93;;;18.20;56.60;;;;;;5055456;28;20025;-69
2022/05/10 05:21:45;;;;;;;11.23;6.70;;;18.30;56.40;;;;;;5058111;28;20097;-68
2022/05/10 05:24:11;;;;;;;10.07;7.40;;;18.50;56.20;;;;;;5063629;28;20017;-69
2022/05/10 05:26:37;;;;;;;9.82;7.30;;;18.70;55.90;;;;;;5053037;28;20025;-69
2022/05/10 05:29:03;;;;;;;10.18;7.30;;;18.90;55.70;;;;;;5061135;28;20024;-68
2022/05/10 05:31:29;;;;;;;8.23;6.57;;;19.00;55.00;;;;;;5053046;28;20047;-68
2022/05/10 05:33:55;;;;;;;7.88;6.20;;;19.10;54.70;;;;;;5059223;28;20489;-68
2022/05/10 05:36:21;;;;;;;11.52;7.47;;;19.20;54.40;;;;;;5051392;28;20060;-68
2022/05/10 05:38:49;;;;;;;8.93;6.55;;;19.40;54.00;;;;;;5055182;28;20056;-69
2022/05/10 05:41:15;;;;;;;9.00;6.45;;;19.50;53.50;;;;;;5055309;28;20074;-68
2022/05/10 05:43:41;;;;;;;10.00;6.80;;;19.40;53.30;;;;;;5052922;28;20410;-68
2022/05/10 05:46:07;;;;;;;9.38;5.78;;;19.30;53.40;;;;;;5063242;28;20020;-68
2022/05/10 05:48:33;;;;;;;9.27;5.95;;;19.30;53.60;;;;;;5054404;28;20013;-68
2022/05/10 05:50:59;;;;;;;7.97;5.60;;;19.30;53.70;;;;;;5064302;28;20024;-69
2022/05/10 05:53:26;;;;;;;7.80;6.20;;;19.20;53.70;;;;;;5060894;28;20031;-69
2022/05/10 05:55:53;;;;;;;8.85;6.38;;;19.10;53.80;;;;;;5050141;28;20078;-68
2022/05/10 05:58:18;;;;;;;12.18;7.65;;;19.10;54.00;;;;;;5050091;28;20052;-69
2022/05/10 06:00:45;;;;;;;11.02;8.15;;;19.00;54.30;;;;;;5062069;28;20052;-69
2022/05/10 06:03:10;;;;;;;11.20;7.65;;;19.00;54.70;;;;;;5058568;28;20383;-69
2022/05/10 06:05:36;;;;;;;10.63;8.63;;;18.90;54.80;;;;;;5056888;28;20025;-69
2022/05/10 06:08:03;;;;;;;10.55;7.65;;;18.80;55.30;;;;;;5064073;28;20035;-70
2022/05/10 06:10:29;;;;;;;11.07;8.80;;;18.80;55.50;;;;;;5049112;28;20060;-69
2022/05/10 06:12:58;;;;;;;10.88;8.02;;;18.80;55.80;;;;;;5062773;28;20645;-70
2022/05/10 06:15:23;;;;;;;10.60;9.25;;;18.70;56.10;;;;;;5054381;28;20120;-69
2022/05/10 06:17:49;;;;;;;11.10;8.48;;;18.70;56.40;;;;;;5061411;28;20640;-70
2022/05/10 06:20:17;;;;;;;13.50;9.63;;;18.70;56.60;;;;;;5053152;28;20017;-70
2022/05/10 06:22:45;;;;;;;14.70;10.13;;;18.70;57.10;;;;;;5048015;28;20017;-68
2022/05/10 06:25:17;;;;;;;13.07;9.95;;;18.70;57.40;;;;;;5049053;28;20024;-68
2022/05/10 06:27:43;;;;;;;13.60;9.70;;;18.70;57.50;;;;;;5044416;28;20017;-70
2022/05/10 06:30:11;;;;;;;8.05;6.47;;;18.70;57.40;;;;;;5042684;28;20025;-70
2022/05/10 06:32:37;;;;;;;12.10;9.00;;;18.80;57.10;;;;;;5043036;28;20507;-70
2022/05/10 06:35:02;;;;;;;10.32;9.00;;;18.90;57.20;;;;;;5045420;28;20060;-68
2022/05/10 06:40:15;;;;;;;12.43;9.55;;;19.00;57.00;;;;;;5041415;28;21482;-70
2022/05/10 06:42:41;;;;;;;13.63;10.23;;;19.10;57.00;;;;;;5049644;28;20103;-70
2022/05/10 06:45:10;;;;;;;13.88;9.13;;;19.10;57.10;;;;;;5058357;28;20495;-69
2022/05/10 06:47:37;;;;;;;15.63;10.80;;;19.20;57.10;;;;;;5050718;28;20574;-71
2022/05/10 06:50:04;;;;;;;10.63;8.80;;;19.30;57.10;;;;;;5053049;28;20070;-70
2022/05/10 06:52:30;;;;;;;12.68;9.55;;;19.40;56.80;;;;;;5043172;28;20037;-72
2022/05/10 06:54:56;;;;;;;15.60;9.90;;;19.40;56.80;;;;;;5032835;28;20110;-72
2022/05/10 06:57:22;;;;;;;14.00;8.63;;;19.50;56.90;;;;;;5044786;28;20040;-72
2022/05/10 06:59:47;;;;;;;12.48;9.98;;;19.60;56.70;;;;;;5050488;28;20029;-71
2022/05/10 07:02:13;;;;;;;13.70;10.63;;;19.70;56.80;;;;;;5051437;28;20029;-71
2022/05/10 07:04:38;;;;;;;11.75;9.00;;;19.80;56.60;;;;;;5042183;28;20033;-72
2022/05/10 07:07:04;;;;;;;16.42;10.93;;;19.90;56.40;;;;;;5041170;28;20052;-71
2022/05/10 07:09:29;;;;;;;10.35;9.07;;;20.00;56.50;;;;;;5046799;28;20025;-70
2022/05/10 07:11:55;;;;;;;8.73;7.10;;;20.00;56.40;;;;;;5050913;28;20288;-71
2022/05/10 07:14:21;;;;;;;16.00;11.68;;;20.10;56.30;;;;;;5050868;28;20025;-71
2022/05/10 07:16:47;;;;;;;16.40;10.70;;;20.20;56.20;;;;;;5047066;28;20086;-71
2022/05/10 07:19:12;;;;;;;12.50;9.88;;;20.30;56.10;;;;;;5050293;28;20446;-70
2022/05/10 07:21:38;;;;;;;14.77;12.20;;;20.30;55.90;;;;;;5033376;28;20072;-71
2022/05/10 07:24:04;;;;;;;9.48;7.80;;;20.30;56.00;;;;;;5038286;28;20083;-71
2022/05/10 07:26:29;;;;;;;15.60;10.95;;;20.40;56.00;;;;;;5049408;28;20036;-71
2022/05/10 07:28:55;;;;;;;12.32;9.15;;;20.50;56.00;;;;;;5046175;28;20387;-71
2022/05/10 07:31:20;;;;;;;14.50;10.70;;;20.60;55.80;;;;;;5033808;28;20040;-71
2022/05/10 07:33:46;;;;;;;10.23;7.63;;;20.70;55.60;;;;;;5033940;28;20040;-71
2022/05/10 07:36:23;;;;;;;11.68;9.63;;;20.80;55.40;;;;;;5050580;28;20032;-70
2022/05/10 07:38:49;;;;;;;13.68;10.32;;;21.00;55.20;;;;;;5037881;28;20112;-72
2022/05/10 07:41:18;;;;;;;12.93;10.70;;;21.20;54.70;;;;;;5049653;28;20059;-72
2022/05/10 07:43:44;;;;;;;11.50;8.98;;;21.40;54.40;;;;;;5041080;28;20039;-73
2022/05/10 07:46:10;;;;;;;14.63;11.65;;;21.70;53.90;;;;;;5030941;28;20060;-73
2022/05/10 07:48:36;;;;;;;12.85;10.50;;;21.80;53.30;;;;;;5061054;28;20021;-70
2022/05/10 07:51:02;;;;;;;12.80;10.40;;;21.90;53.10;;;;;;5033980;28;20033;-70
2022/05/10 07:53:31;;;;;;;13.63;11.52;;;22.00;53.00;;;;;;5030696;28;20495;-69
2022/05/10 07:55:58;;;;;;;9.60;8.60;;;22.10;52.70;;;;;;5032354;28;20103;-70
2022/05/10 07:58:29;;;;;;;10.15;8.55;;;22.30;52.50;;;;;;5046703;28;20021;-73
2022/05/10 08:00:59;;;;;;;11.70;9.65;;;22.50;52.30;;;;;;5043713;28;20017;-71
2022/05/10 08:03:26;;;;;;;9.55;8.43;;;22.80;52.00;;;;;;5048653;28;20029;-68
2022/05/10 08:05:56;;;;;;;11.20;9.23;;;23.00;51.60;;;;;;5040606;28;20137;-69
2022/05/10 08:08:23;;;;;;;10.85;8.38;;;23.20;51.30;;;;;;5043747;28;20386;-69
2022/05/10 08:10:50;;;;;;;11.95;10.52;;;23.30;51.00;;;;;;5039916;28;20043;-69
2022/05/10 08:13:22;;;;;;;10.07;7.72;;;23.50;50.40;;;;;;5044981;28;20668;-69
2022/05/10 08:15:48;;;;;;;10.70;8.80;;;23.50;50.50;;;;;;5045159;28;20025;-69
2022/05/10 08:18:14;;;;;;;11.68;8.77;;;23.60;50.10;;;;;;5043458;28;20506;-69
2022/05/10 08:20:41;;;;;;;9.23;8.13;;;23.60;50.10;;;;;;5041107;28;20029;-69
2022/05/10 08:23:08;;;;;;;10.68;7.60;;;23.40;50.00;;;;;;5041603;28;20096;-69
2022/05/10 08:25:34;;;;;;;9.63;7.70;;;23.40;50.20;;;;;;5036618;28;20049;-70
2022/05/10 08:28:00;;;;;;;10.80;8.25;;;23.40;50.30;;;;;;5039869;28;20674;-69
2022/05/10 08:30:25;;;;;;;10.52;9.43;;;23.40;50.20;;;;;;5039754;28;20029;-69
2022/05/10 08:32:51;;;;;;;9.02;6.63;;;23.30;49.70;;;;;;5037821;28;20021;-70
2022/05/10 08:35:18;;;;;;;11.70;7.80;;;23.40;50.10;;;;;;5038348;28;20026;-70
2022/05/10 08:37:43;;;;;;;9.32;7.63;;;23.40;50.10;;;;;;5038024;28;20025;-70
2022/05/10 08:40:24;;;;;;;6.95;5.50;;;23.40;50.00;;;;;;5039980;28;20017;-70
2022/05/10 08:42:51;;;;;;;7.72;5.25;;;23.40;50.00;;;;;;5038288;28;20021;-70
2022/05/10 08:45:24;;;;;;;11.13;7.70;;;23.50;50.10;;;;;;5036907;28;20021;-70
2022/05/10 08:47:50;;;;;;;6.85;6.15;;;23.50;49.80;;;;;;5037979;28;20503;-71
2022/05/10 08:50:16;;;;;;;8.88;5.60;;;23.50;50.00;;;;;;5042119;28;20026;-70
2022/05/10 08:52:46;;;;;;;5.93;5.22;;;23.40;50.20;;;;;;5047882;28;20017;-71
2022/05/10 08:55:15;;;;;;;4.95;4.30;;;23.50;50.20;;;;;;5042261;28;20494;-70
2022/05/10 08:57:53;;;;;;;7.30;5.85;;;23.50;50.20;;;;;;5043424;28;20048;-71
2022/05/10 09:00:31;;;;;;;6.38;4.50;;;23.50;50.10;;;;;;5045640;28;20025;-71
2022/05/10 09:03:00;;;;;;;8.45;5.75;;;23.50;50.10;;;;;;5049482;28;20573;-71
2022/05/10 09:05:38;;;;;;;9.65;5.53;;;23.40;50.00;;;;;;5055359;28;20029;-71
2022/05/10 09:08:25;;;;;;;7.55;4.90;;;23.40;50.10;;;;;;5057630;28;20386;-71
2022/05/10 09:11:00;;;;;;;7.93;5.93;;;23.40;50.90;;;;;;5055939;28;20029;-72
2022/05/10 09:13:26;;;;;;;6.35;5.07;;;23.40;50.20;;;;;;5060156;28;20099;-72
2022/05/10 09:16:01;;;;;;;6.90;4.25;;;23.40;50.30;;;;;;5073249;28;20565;-71
2022/05/10 09:18:29;;;;;;;8.93;5.00;;;23.40;50.30;;;;;;5073490;28;20085;-72
2022/05/10 09:21:16;;;;;;;7.78;5.55;;;23.50;49.90;;;;;;5063673;28;20070;-71
2022/05/10 09:24:26;;;;;;;6.13;5.03;;;23.50;49.50;;;;;;5061534;28;20029;-71
2022/05/10 09:26:56;;;;;;;6.55;4.85;;;23.50;49.50;;;;;;5069628;28;20032;-72
2022/05/10 09:29:31;;;;;;;7.35;5.57;;;23.60;49.40;;;;;;5062830;28;20025;-72
2022/05/10 09:34:53;;;;;;;5.43;4.80;;;23.70;49.50;;;;;;5056240;28;20094;-71
2022/05/10 09:37:36;;;;;;;5.75;3.47;;;23.80;49.10;;;;;;5062158;28;20060;-71
2022/05/10 09:40:09;;;;;;;7.45;4.78;;;23.90;48.90;;;;;;5057134;28;20020;-71
2022/05/10 09:42:36;;;;;;;7.88;4.75;;;24.20;48.00;;;;;;5060758;28;20025;-71
2022/05/10 09:45:14;;;;;;;5.43;4.38;;;24.40;47.60;;;;;;5064166;28;20028;-72
2022/05/10 09:47:53;;;;;;;5.90;3.70;;;24.50;46.90;;;;;;5055717;28;20510;-72
2022/05/10 09:50:21;;;;;;;5.95;3.90;;;24.70;46.70;;;;;;5058969;28;20052;-72
2022/05/10 09:52:48;;;;;;;7.40;4.53;;;24.90;46.10;;;;;;5059561;28;20041;-71
2022/05/10 09:55:27;;;;;;;5.43;3.63;;;25.10;45.30;;;;;;5058563;28;20025;-71
2022/05/10 09:57:55;;;;;;;7.93;4.88;;;25.10;44.70;;;;;;5053219;28;20521;-71
2022/05/10 10:00:40;;;;;;;6.00;3.92;;;25.20;44.00;;;;;;5064247;28;20025;-71
2022/05/10 10:03:06;;;;;;;6.30;3.58;;;25.20;44.50;;;;;;5059565;28;20103;-72
2022/05/10 10:05:33;;;;;;;4.80;3.95;;;25.40;44.30;;;;;;5061343;28;20575;-70
2022/05/10 10:07:58;;;;;;;4.28;3.15;;;25.60;43.60;;;;;;5060055;28;20048;-71
2022/05/10 10:10:37;;;;;;;3.70;3.15;;;25.70;43.90;;;;;;5068188;28;20117;-71
2022/05/10 10:13:33;;;;;;;5.80;3.90;;;25.90;43.50;;;;;;5046496;28;20108;-71
2022/05/10 10:16:00;;;;;;;3.80;3.10;;;25.90;43.10;;;;;;5045122;28;20103;-71
2022/05/10 10:18:49;;;;;;;5.55;3.30;;;26.10;43.30;;;;;;5062082;28;20163;-71
2022/05/10 10:21:41;;;;;;;7.00;4.53;;;26.30;43.20;;;;;;5068760;28;20028;-71
2022/05/10 10:24:07;;;;;;;5.88;3.70;;;26.50;42.40;;;;;;5057865;28;20039;-71
2022/05/10 10:26:38;;;;;;;6.43;4.55;;;26.50;42.70;;;;;;5059496;28;20029;-72
2022/05/10 10:29:19;;;;;;;7.47;3.70;;;26.50;41.60;;;;;;5063679;28;20031;-71
2022/05/10 10:31:55;;;;;;;6.90;3.50;;;26.50;41.70;;;;;;5039170;28;20084;-70
2022/05/10 10:34:39;;;;;;;5.93;4.20;;;26.50;41.50;;;;;;5063226;28;20123;-73
2022/05/10 10:37:16;;;;;;;6.05;3.75;;;26.60;41.40;;;;;;5057804;28;20039;-69
2022/05/10 10:40:27;;;;;;;4.93;3.20;;;26.50;41.30;;;;;;5065972;28;20029;-70
2022/05/10 10:43:13;;;;;;;4.30;3.50;;;26.40;41.40;;;;;;5051982;28;20032;-69
2022/05/10 10:45:47;;;;;;;6.45;3.55;;;26.40;41.80;;;;;;5051725;28;20413;-69
2022/05/10 10:48:23;;;;;;;4.18;3.28;;;26.40;41.50;;;;;;5051230;28;20139;-69
2022/05/10 10:50:49;;;;;;;6.95;4.40;;;26.40;41.40;;;;;;5049778;28;20039;-69
2022/05/10 10:53:14;;;;;;;6.07;3.53;;;26.40;41.00;;;;;;5056868;28;20028;-69
2022/05/10 10:55:49;;;;;;;3.97;2.90;;;26.30;40.90;;;;;;5065548;28;20056;-69
2022/05/10 10:58:43;;;;;;;8.68;4.65;;;26.40;41.30;;;;;;5046468;28;20043;-69
2022/05/10 11:01:39;;;;;;;5.70;3.90;;;26.50;41.00;;;;;;5057367;28;20060;-70
2022/05/10 11:04:08;;;;;;;5.43;3.80;;;26.50;41.00;;;;;;5043877;28;20025;-70
2022/05/10 11:06:52;;;;;;;5.80;3.65;;;26.40;41.00;;;;;;5062409;28;20363;-70
2022/05/10 11:09:40;;;;;;;6.25;4.10;;;26.60;41.30;;;;;;5049785;28;20031;-70
2022/05/10 11:12:12;;;;;;;3.78;3.38;;;26.80;41.30;;;;;;5054594;28;20134;-71
2022/05/10 11:15:02;;;;;;;5.80;3.85;;;26.80;40.90;;;;;;5059969;28;20025;-70
2022/05/10 11:17:54;;;;;;;8.75;4.03;;;26.80;40.80;;;;;;5058975;28;20372;-70
2022/05/10 11:20:31;;;;;;;3.80;3.10;;;26.70;40.70;;;;;;5055970;28;20024;-70
2022/05/10 11:22:58;;;;;;;5.57;3.58;;;26.80;40.80;;;;;;5062089;28;20031;-70
2022/05/10 11:25:33;;;;;;;6.65;3.20;;;26.80;40.60;;;;;;5038163;28;20033;-70
2022/05/10 11:28:34;;;;;;;4.65;3.15;;;27.00;40.80;;;;;;5047542;28;20032;-70
2022/05/10 11:31:00;;;;;;;4.05;3.30;;;27.00;40.70;;;;;;5067983;28;20032;-70
2022/05/10 11:33:40;;;;;;;5.10;3.30;;;27.10;40.60;;;;;;5043546;28;20041;-71
2022/05/10 11:36:27;;;;;;;4.35;2.75;;;27.10;40.40;;;;;;5058025;28;20446;-71
2022/05/10 11:39:11;;;;;;;4.38;3.05;;;27.10;40.50;;;;;;5061424;28;20056;-72
2022/05/10 11:42:15;;;;;;;4.15;2.83;;;27.10;40.40;;;;;;5056986;28;20029;-71
2022/05/10 11:45:15;;;;;;;7.28;3.35;;;27.10;40.30;;;;;;5045022;28;20120;-71
2022/05/10 11:48:04;;;;;;;4.85;3.38;;;27.10;40.10;;;;;;5049615;28;20364;-71
2022/05/10 11:51:42;;;;;;;6.88;4.10;;;27.00;40.20;;;;;;5058291;28;20116;-71
2022/05/10 11:54:28;;;;;;;7.15;4.50;;;27.00;40.40;;;;;;5028146;28;20057;-71
2022/05/10 11:56:55;;;;;;;4.60;3.40;;;26.80;40.20;;;;;;5062711;28;20485;-72
2022/05/10 11:59:31;;;;;;;3.80;2.97;;;26.70;40.50;;;;;;5050281;28;20041;-71
2022/05/10 12:01:58;;;;;;;4.10;3.40;;;26.70;40.60;;;;;;5041306;28;20021;-72
2022/05/10 12:04:42;;;;;;;5.45;3.70;;;26.60;40.60;;;;;;5030521;28;20017;-70
2022/05/10 12:07:19;;;;;;;6.03;3.42;;;26.60;40.60;;;;;;5042811;28;20517;-71
2022/05/10 12:10:21;;;;;;;3.80;3.00;;;26.60;40.70;;;;;;5048961;28;20071;-71
2022/05/10 12:12:46;;;;;;;3.88;2.70;;;26.70;40.80;;;;;;5050132;28;20704;-72
2022/05/10 12:21:22;;;;;;;5.32;3.10;;;27.00;40.30;;;;;;5030432;28;20030;-71
2022/05/10 12:24:12;;;;;;;4.05;2.90;;;27.10;40.00;;;;;;5030084;28;20034;-70
2022/05/10 12:26:48;;;;;;;7.25;3.28;;;27.10;39.90;;;;;;5029982;28;20013;-70
2022/05/10 12:29:36;;;;;;;5.75;3.47;;;27.10;39.90;;;;;;5038139;28;20021;-70
2022/05/10 12:32:09;;;;;;;4.18;2.83;;;27.00;39.80;;;;;;5049466;28;20028;-71
2022/05/10 12:34:40;;;;;;;4.68;2.80;;;27.10;40.10;;;;;;5044254;28;20045;-71
2022/05/10 12:37:31;;;;;;;5.10;2.88;;;27.10;40.10;;;;;;5052496;28;20506;-71
2022/05/10 12:40:03;;;;;;;4.77;3.00;;;27.20;40.00;;;;;;5052584;28;20399;-71
2022/05/10 12:42:56;;;;;;;6.15;3.60;;;27.20;40.00;;;;;;5052731;28;20032;-70
2022/05/10 12:45:49;;;;;;;5.20;3.80;;;27.10;40.10;;;;;;5049100;28;20027;-71
2022/05/10 12:48:30;;;;;;;5.55;2.90;;;26.90;40.30;;;;;;5032648;28;20029;-71
2022/05/10 12:51:02;;;;;;;4.75;2.63;;;26.80;40.60;;;;;;5049043;28;20044;-70
2022/05/10 12:53:36;;;;;;;3.50;2.70;;;26.70;40.80;;;;;;5055194;28;20083;-72
2022/05/10 12:56:24;;;;;;;6.78;3.20;;;26.80;41.00;;;;;;5052689;28;20056;-71
2022/05/10 12:59:06;;;;;;;4.03;2.80;;;26.80;41.00;;;;;;5050587;28;20025;-69
2022/05/10 13:01:34;;;;;;;3.53;2.70;;;26.90;40.90;;;;;;5052810;28;20531;-70
2022/05/10 13:04:25;;;;;;;4.38;3.35;;;26.90;41.00;;;;;;5049745;28;20028;-69
2022/05/10 13:07:11;;;;;;;5.03;3.75;;;26.80;40.50;;;;;;5053398;28;20021;-71
2022/05/10 13:10:01;;;;;;;6.03;3.10;;;26.70;40.50;;;;;;5048873;28;20048;-69
2022/05/10 13:12:37;;;;;;;4.40;3.00;;;26.60;40.60;;;;;;5039714;28;20043;-70
2022/05/10 13:15:15;;;;;;;4.65;3.10;;;26.60;40.50;;;;;;5038711;28;20096;-70
2022/05/10 13:17:48;;;;;;;5.65;3.13;;;26.60;40.60;;;;;;5046584;28;20040;-70
2022/05/10 13:20:17;;;;;;;7.80;3.35;;;26.70;40.70;;;;;;5052537;28;20021;-71
2022/05/10 13:22:59;;;;;;;5.50;3.30;;;26.70;40.50;;;;;;5044937;28;20514;-71
2022/05/10 13:25:37;;;;;;;5.80;2.90;;;26.70;40.60;;;;;;5052456;28;20694;-69
2022/05/10 13:28:16;;;;;;;5.72;3.10;;;26.60;40.80;;;;;;5047845;28;20032;-70
2022/05/10 13:30:45;;;;;;;6.20;2.90;;;26.50;40.90;;;;;;5040312;28;20033;-70
2022/05/10 13:33:24;;;;;;;4.80;3.03;;;26.50;41.10;;;;;;5041744;28;20025;-69